createdAt,value
2023-02-19T00:02:21.513Z,7.60
2023-02-19T00:05:18.351Z,7.50
2023-02-19T00:08:15.218Z,7.60
2023-02-19T00:11:16.085Z,7.50
2023-02-19T00:14:18.825Z,7.50
2023-02-19T00:17:15.654Z,7.50
2023-02-19T00:20:12.478Z,7.50
2023-02-19T00:23:09.340Z,7.60
2023-02-19T00:26:18.572Z,7.50
2023-02-19T00:29:21.317Z,7.60
2023-02-19T00:32:18.184Z,7.60
2023-02-19T00:35:15.156Z,7.60
2023-02-19T00:38:12.005Z,7.60
2023-02-19T00:41:21.171Z,7.60
2023-02-19T00:44:18.245Z,7.50
2023-02-19T00:47:15.075Z,7.50
2023-02-19T00:50:11.974Z,7.50
2023-02-19T00:53:08.822Z,7.50
2023-02-19T00:56:06.839Z,7.50
2023-02-19T00:59:04.235Z,7.50
2023-02-19T01:02:01.081Z,7.50
2023-02-19T01:04:58.041Z,7.40
2023-02-19T01:07:54.948Z,7.50
2023-02-19T01:10:51.937Z,7.40
2023-02-19T01:13:48.847Z,7.50
2023-02-19T01:16:45.676Z,7.50
2023-02-19T01:19:42.507Z,7.50
2023-02-19T01:22:39.343Z,7.50
2023-02-19T01:25:40.063Z,7.50
2023-02-19T01:28:36.982Z,7.50
2023-02-19T01:31:34.428Z,7.50
2023-02-19T01:34:33.349Z,7.50
2023-02-19T01:37:30.291Z,7.50
2023-02-19T01:40:27.372Z,7.50
2023-02-19T01:43:24.741Z,7.40
2023-02-19T01:46:21.621Z,7.50
2023-02-19T01:49:26.143Z,7.50
2023-02-19T01:52:32.640Z,7.50
2023-02-19T01:55:29.753Z,7.50
2023-02-19T01:58:32.768Z,7.50
2023-02-19T02:01:29.844Z,7.50
2023-02-19T02:04:27.437Z,7.50
2023-02-19T02:07:42.570Z,7.50
2023-02-19T02:10:40.179Z,7.50
2023-02-19T02:13:38.685Z,7.60
2023-02-19T02:16:51.800Z,7.50
2023-02-19T02:20:44.815Z,7.50
2023-02-19T02:24:37.050Z,7.50
2023-02-19T02:27:52.209Z,7.50
2023-02-19T02:31:10.890Z,7.50
2023-02-19T02:34:25.332Z,7.60
2023-02-19T02:37:25.582Z,7.50
2023-02-19T02:40:23.543Z,7.50
2023-02-19T02:43:20.380Z,7.50
2023-02-19T02:46:30.200Z,7.60
2023-02-19T02:49:28.326Z,7.50
2023-02-19T02:52:44.097Z,7.50
2023-02-19T02:55:47.176Z,7.50
2023-02-19T02:58:45.619Z,7.50
2023-02-19T03:02:11.976Z,7.50
2023-02-19T03:05:43.086Z,7.50
2023-02-19T03:09:02.164Z,7.50
2023-02-19T03:12:21.682Z,7.50
2023-02-19T03:15:38.820Z,7.50
2023-02-19T03:18:57.117Z,7.60
2023-02-19T03:22:10.784Z,7.60
2023-02-19T03:25:37.304Z,7.60
2023-02-19T03:28:57.515Z,7.60
2023-02-19T03:32:00.747Z,7.60
2023-02-19T03:35:10.392Z,7.60
2023-02-19T03:38:33.958Z,7.60
2023-02-19T03:41:55.417Z,7.60
2023-02-19T03:45:14.765Z,7.60
2023-02-19T03:48:32.254Z,7.60
2023-02-19T03:51:45.284Z,7.60
2023-02-19T03:54:53.778Z,7.60
2023-02-19T03:58:03.425Z,7.60
2023-02-19T04:01:11.139Z,7.60
2023-02-19T04:04:20.464Z,7.60
2023-02-19T04:07:17.405Z,7.60
2023-02-19T04:10:17.321Z,7.60
2023-02-19T04:13:32.792Z,7.70
2023-02-19T04:16:30.574Z,7.70
2023-02-19T04:19:30.818Z,7.70
2023-02-19T04:22:29.155Z,7.60
2023-02-19T04:25:29.260Z,7.70
2023-02-19T04:28:26.122Z,7.70
2023-02-19T04:31:24.695Z,7.70
2023-02-19T04:34:21.558Z,7.60
2023-02-19T04:37:18.392Z,7.60
2023-02-19T04:40:15.324Z,7.60
2023-02-19T04:43:12.100Z,7.60
2023-02-19T04:46:08.968Z,7.50
2023-02-19T04:49:05.844Z,7.50
2023-02-19T04:52:02.659Z,7.50
2023-02-19T04:54:59.463Z,7.50
2023-02-19T04:57:56.254Z,7.50
2023-02-19T05:00:53.495Z,7.50
2023-02-19T05:03:50.955Z,7.50
2023-02-19T05:06:47.779Z,7.60
2023-02-19T05:09:44.566Z,7.50
2023-02-19T05:12:41.381Z,7.50
2023-02-19T05:15:38.488Z,7.50
2023-02-19T05:18:35.363Z,7.50
2023-02-19T05:21:32.174Z,7.50
2023-02-19T05:24:29.892Z,7.50
2023-02-19T05:27:26.710Z,7.50
2023-02-19T05:30:23.625Z,7.50
2023-02-19T05:33:23.326Z,7.50
2023-02-19T05:36:21.886Z,7.60
2023-02-19T05:39:18.668Z,7.60
2023-02-19T05:42:15.525Z,7.50
2023-02-19T05:45:12.330Z,7.60
2023-02-19T05:48:10.884Z,7.50
2023-02-19T05:51:14.151Z,7.50
2023-02-19T05:54:10.999Z,7.50
2023-02-19T05:57:07.838Z,7.50
2023-02-19T06:00:05.405Z,7.50
2023-02-19T06:03:02.548Z,7.50
2023-02-19T06:05:59.398Z,7.50
2023-02-19T06:08:56.209Z,7.60
2023-02-19T06:11:53.004Z,7.60
2023-02-19T06:14:50.155Z,7.60
2023-02-19T06:17:47.017Z,7.50
2023-02-19T06:20:43.815Z,7.60
2023-02-19T06:23:41.256Z,7.60
2023-02-19T06:26:38.581Z,7.60
2023-02-19T06:29:38.257Z,7.60
2023-02-19T06:32:35.273Z,7.60
2023-02-19T06:35:32.078Z,7.50
2023-02-19T06:38:29.777Z,7.60
2023-02-19T06:41:29.686Z,7.50
2023-02-19T06:44:26.573Z,7.50
2023-02-19T06:47:25.426Z,7.50
2023-02-19T06:50:22.364Z,7.50
2023-02-19T06:53:19.198Z,7.50
2023-02-19T06:56:32.179Z,7.40
2023-02-19T06:59:29.001Z,7.40
2023-02-19T07:02:26.304Z,7.40
2023-02-19T07:05:23.873Z,7.40
2023-02-19T07:08:21.041Z,7.40
2023-02-19T07:11:18.756Z,7.40
2023-02-19T07:14:16.981Z,7.50
2023-02-19T07:17:13.805Z,7.40
2023-02-19T07:20:10.979Z,7.40
2023-02-19T07:23:07.774Z,7.40
2023-02-19T07:26:08.190Z,7.50
2023-02-19T07:29:05.028Z,7.50
2023-02-19T07:32:01.983Z,7.50
2023-02-19T07:34:58.777Z,7.40
2023-02-19T07:37:55.632Z,7.50
2023-02-19T07:41:05.938Z,7.50
2023-02-19T07:44:02.779Z,7.50
2023-02-19T07:46:59.602Z,7.50
2023-02-19T07:49:56.887Z,7.50
2023-02-19T07:52:54.077Z,7.50
2023-02-19T07:55:51.068Z,7.50
2023-02-19T07:58:47.947Z,7.40
2023-02-19T08:02:03.453Z,7.50
2023-02-19T08:05:00.262Z,7.40
2023-02-19T08:07:57.954Z,7.50
2023-02-19T08:11:13.269Z,7.50
2023-02-19T08:14:10.478Z,7.50
2023-02-19T08:17:07.384Z,7.50
2023-02-19T08:20:04.273Z,7.40
2023-02-19T08:23:01.150Z,7.20
2023-02-19T08:26:00.378Z,7.30
2023-02-19T08:28:58.963Z,7.30
2023-02-19T08:31:55.815Z,7.20
2023-02-19T08:34:52.610Z,7.30
2023-02-19T08:37:49.437Z,7.30
2023-02-19T08:40:46.246Z,7.40
2023-02-19T08:43:43.495Z,7.50
2023-02-19T08:46:40.288Z,7.50
2023-02-19T08:49:37.103Z,7.50
2023-02-19T08:52:34.364Z,7.50
2023-02-19T08:55:31.501Z,7.40
2023-02-19T08:58:28.421Z,7.40
2023-02-19T09:01:25.478Z,7.30
2023-02-19T09:04:22.320Z,7.40
2023-02-19T09:07:20.319Z,7.50
2023-02-19T09:10:17.202Z,7.50
2023-02-19T09:13:14.030Z,7.50
2023-02-19T09:16:11.218Z,7.30
2023-02-19T09:19:08.010Z,7.30
2023-02-19T09:22:05.743Z,7.30
2023-02-19T09:25:02.619Z,7.30
2023-02-19T09:27:59.422Z,7.40
2023-02-19T09:30:56.250Z,7.40
2023-02-19T09:33:53.071Z,7.40
2023-02-19T09:36:50.515Z,7.50
2023-02-19T09:39:47.302Z,7.50
2023-02-19T09:42:44.667Z,7.50
2023-02-19T09:45:42.627Z,7.50
2023-02-19T09:48:39.519Z,7.50
2023-02-19T09:51:40.645Z,7.70
2023-02-19T09:54:39.712Z,7.80
2023-02-19T09:57:37.044Z,8.20
2023-02-19T10:00:36.071Z,8.10
2023-02-19T10:03:41.342Z,7.90
2023-02-19T10:06:38.315Z,7.80
2023-02-19T10:09:36.117Z,7.70
2023-02-19T10:12:34.635Z,7.80
2023-02-19T10:15:41.204Z,7.70
2023-02-19T10:18:42.323Z,7.70
2023-02-19T10:21:39.897Z,7.70
2023-02-19T10:24:38.602Z,7.80
2023-02-19T10:27:35.573Z,7.90
2023-02-19T10:30:35.873Z,7.80
2023-02-19T10:33:32.776Z,7.80
2023-02-19T10:36:38.376Z,7.80
2023-02-19T10:39:47.116Z,8.00
2023-02-19T10:42:58.799Z,7.90
2023-02-19T10:45:55.713Z,7.90
2023-02-19T10:48:55.812Z,7.90
2023-02-19T10:51:56.541Z,7.90
2023-02-19T10:54:57.354Z,8.00
2023-02-19T10:57:55.072Z,8.00
2023-02-19T11:01:30.268Z,8.10
2023-02-19T11:04:38.075Z,8.20
2023-02-19T11:07:37.575Z,8.30
2023-02-19T11:10:44.762Z,8.20
2023-02-19T11:13:42.793Z,8.20
2023-02-19T11:17:00.573Z,8.10
2023-02-19T11:20:05.201Z,8.20
2023-02-19T11:23:22.357Z,8.10
2023-02-19T11:26:25.927Z,8.20
2023-02-19T11:29:28.632Z,8.40
2023-02-19T11:32:29.799Z,8.30
2023-02-19T11:35:26.611Z,8.30
2023-02-19T11:38:23.518Z,8.20
2023-02-19T11:41:50.376Z,8.20
2023-02-19T11:45:34.383Z,8.30
2023-02-19T11:48:53.810Z,8.40
2023-02-19T11:52:45.746Z,8.20
2023-02-19T11:55:48.261Z,8.20
2023-02-19T11:59:05.174Z,8.20
2023-02-19T12:02:47.277Z,8.10
2023-02-19T12:06:22.623Z,8.10
2023-02-19T12:09:45.283Z,8.10
2023-02-19T12:13:12.460Z,8.10
2023-02-19T12:16:43.314Z,8.10
2023-02-19T12:19:54.503Z,8.20
2023-02-19T12:23:09.467Z,8.20
2023-02-19T12:26:48.075Z,8.20
2023-02-19T12:30:03.390Z,8.20
2023-02-19T12:33:30.538Z,8.20
2023-02-19T12:37:11.373Z,8.20
2023-02-19T12:40:22.931Z,8.10
2023-02-19T12:43:24.355Z,8.00
2023-02-19T12:46:33.242Z,7.90
2023-02-19T12:49:47.059Z,7.80
2023-02-19T12:52:53.810Z,7.90
2023-02-19T12:55:52.550Z,8.00
2023-02-19T12:58:55.095Z,8.00
2023-02-19T13:02:18.826Z,8.10
2023-02-19T13:05:58.585Z,7.80
2023-02-19T13:09:13.708Z,7.70
2023-02-19T13:12:26.449Z,7.70
2023-02-19T13:15:48.537Z,7.50
2023-02-19T13:18:49.973Z,7.50
2023-02-19T13:22:29.751Z,7.60
2023-02-19T13:26:15.002Z,7.60
2023-02-19T13:29:34.222Z,7.70
2023-02-19T13:32:49.675Z,7.70
2023-02-19T13:36:10.608Z,7.80
2023-02-19T13:39:07.544Z,7.80
2023-02-19T13:42:04.696Z,7.80
2023-02-19T13:45:05.216Z,7.90
2023-02-19T13:48:33.879Z,7.80
2023-02-19T13:51:39.387Z,7.80
2023-02-19T13:54:40.122Z,7.70
2023-02-19T13:57:37.511Z,7.60
2023-02-19T14:00:53.890Z,7.70
2023-02-19T14:04:18.630Z,7.60
2023-02-19T14:07:49.283Z,7.60
2023-02-19T14:11:02.462Z,7.60
2023-02-19T14:14:06.500Z,7.70
2023-02-19T14:17:10.074Z,7.60
2023-02-19T14:20:10.042Z,7.60
2023-02-19T14:23:23.340Z,7.60
2023-02-19T14:26:21.220Z,7.60
2023-02-19T14:29:18.470Z,7.60
2023-02-19T14:32:20.324Z,7.60
2023-02-19T14:35:24.918Z,7.50
2023-02-19T14:38:32.473Z,7.60
2023-02-19T14:41:33.700Z,7.60
2023-02-19T14:44:48.536Z,7.50
2023-02-19T14:47:47.615Z,7.60
2023-02-19T14:50:51.895Z,7.60
2023-02-19T14:53:50.398Z,7.60
2023-02-19T14:56:52.810Z,7.60
2023-02-19T15:00:33.805Z,7.50
2023-02-19T15:03:36.179Z,7.60
2023-02-19T15:06:35.716Z,7.50
2023-02-19T15:09:39.300Z,7.40
2023-02-19T15:13:01.103Z,7.40
2023-02-19T15:15:58.624Z,7.40
2023-02-19T15:18:57.160Z,7.40
2023-02-19T15:21:55.527Z,7.30
2023-02-19T15:24:52.403Z,7.30
2023-02-19T15:27:49.624Z,7.40
2023-02-19T15:30:46.442Z,7.30
2023-02-19T15:33:52.039Z,7.20
2023-02-19T15:36:52.570Z,7.20
2023-02-19T15:39:51.379Z,7.20
2023-02-19T15:42:48.297Z,7.00
2023-02-19T15:45:46.131Z,7.10
2023-02-19T15:49:31.061Z,7.10
2023-02-19T15:52:45.056Z,7.10
2023-02-19T15:56:02.653Z,7.20
2023-02-19T15:59:13.465Z,7.10
2023-02-19T16:02:14.280Z,7.10
2023-02-19T16:05:27.965Z,7.00
2023-02-19T16:08:36.746Z,7.00
2023-02-19T16:11:53.271Z,7.00
2023-02-19T16:14:51.033Z,7.00
2023-02-19T16:17:48.262Z,6.90
2023-02-19T16:20:47.921Z,6.90
2023-02-19T16:23:49.421Z,6.90
2023-02-19T16:26:46.611Z,6.90
2023-02-19T16:29:51.228Z,6.80
2023-02-19T16:32:48.047Z,6.80
2023-02-19T16:35:45.012Z,6.90
2023-02-19T16:38:58.047Z,6.90
2023-02-19T16:42:02.048Z,6.80
2023-02-19T16:45:02.142Z,6.90
2023-02-19T16:47:59.076Z,6.90
2023-02-19T16:50:56.815Z,6.90
2023-02-19T16:53:53.959Z,6.80
2023-02-19T16:56:50.892Z,6.80
2023-02-19T16:59:48.011Z,6.80
2023-02-19T17:02:51.586Z,6.70
2023-02-19T17:05:48.684Z,6.60
2023-02-19T17:08:45.567Z,6.50
2023-02-19T17:11:42.366Z,6.50
2023-02-19T17:14:39.485Z,6.50
2023-02-19T17:17:36.403Z,6.40
2023-02-19T17:20:35.690Z,6.20
2023-02-19T17:23:32.499Z,6.30
2023-02-19T17:26:32.016Z,6.40
2023-02-19T17:29:30.501Z,6.30
2023-02-19T17:32:27.437Z,6.30
2023-02-19T17:35:24.664Z,6.40
2023-02-19T17:38:21.573Z,6.40
2023-02-19T17:41:18.516Z,6.40
2023-02-19T17:44:15.389Z,6.40
2023-02-19T17:47:12.231Z,6.40
2023-02-19T17:50:19.833Z,6.40
2023-02-19T17:53:16.652Z,6.40
2023-02-19T17:56:23.731Z,6.40
2023-02-19T17:59:20.568Z,6.40
2023-02-19T18:02:17.466Z,6.30
2023-02-19T18:05:14.671Z,6.30
2023-02-19T18:08:11.852Z,6.20
2023-02-19T18:11:08.718Z,6.20
2023-02-19T18:14:05.508Z,6.10
2023-02-19T18:17:02.349Z,6.10
2023-02-19T18:19:59.578Z,6.30
2023-02-19T18:22:57.816Z,6.40
2023-02-19T18:25:54.753Z,6.40
2023-02-19T18:28:51.586Z,6.30
2023-02-19T18:31:48.564Z,6.20
2023-02-19T18:34:50.316Z,6.20
2023-02-19T18:37:53.193Z,6.20
2023-02-19T18:40:49.982Z,6.20
2023-02-19T18:43:47.681Z,6.20
2023-02-19T18:46:44.501Z,6.30
2023-02-19T18:49:47.004Z,6.20
2023-02-19T18:52:43.998Z,6.20
2023-02-19T18:55:40.884Z,6.10
2023-02-19T18:58:37.705Z,6.20
2023-02-19T19:01:34.639Z,6.20
2023-02-19T19:04:31.516Z,6.20
2023-02-19T19:07:28.356Z,6.20
2023-02-19T19:10:26.295Z,6.30
2023-02-19T19:13:23.116Z,6.20
2023-02-19T19:16:25.349Z,6.20
2023-02-19T19:19:22.206Z,6.30
2023-02-19T19:22:22.728Z,6.30
2023-02-19T19:25:21.336Z,6.30
2023-02-19T19:28:18.131Z,6.30
2023-02-19T19:31:18.193Z,6.20
2023-02-19T19:34:15.373Z,6.30
2023-02-19T19:37:12.351Z,6.30
2023-02-19T19:40:10.445Z,6.20
2023-02-19T19:43:07.272Z,6.20
2023-02-19T19:46:04.334Z,6.30
2023-02-19T19:49:01.664Z,6.20
2023-02-19T19:52:01.039Z,6.10
2023-02-19T19:54:58.299Z,6.10
2023-02-19T19:57:55.109Z,6.10
2023-02-19T20:00:52.620Z,6.10
2023-02-19T20:03:51.061Z,6.10
2023-02-19T20:06:48.339Z,6.10
2023-02-19T20:09:49.628Z,6.10
2023-02-19T20:12:47.021Z,6.10
2023-02-19T20:15:43.936Z,6.10
2023-02-19T20:18:41.168Z,6.20
2023-02-19T20:21:37.991Z,6.30
2023-02-19T20:24:34.795Z,6.30
2023-02-19T20:27:31.784Z,6.20
2023-02-19T20:30:28.597Z,6.30
2023-02-19T20:33:25.548Z,6.30
2023-02-19T20:36:22.421Z,6.20
2023-02-19T20:39:21.608Z,6.20
2023-02-19T20:42:18.739Z,6.20
2023-02-19T20:45:16.723Z,6.20
2023-02-19T20:48:16.501Z,6.20
2023-02-19T20:51:13.343Z,6.20
2023-02-19T20:54:10.217Z,6.20
2023-02-19T20:57:07.065Z,6.30
2023-02-19T21:00:06.556Z,6.30
2023-02-19T21:03:03.688Z,6.30
2023-02-19T21:06:00.620Z,6.30
2023-02-19T21:08:57.624Z,6.30
2023-02-19T21:11:54.445Z,6.30
2023-02-19T21:14:51.258Z,6.30
2023-02-19T21:17:48.159Z,6.40
2023-02-19T21:20:45.045Z,6.40
2023-02-19T21:23:41.848Z,6.40
2023-02-19T21:26:41.214Z,6.40
2023-02-19T21:29:38.027Z,6.40
2023-02-19T21:32:34.871Z,6.40
2023-02-19T21:35:31.792Z,6.40
2023-02-19T21:38:28.610Z,6.50
2023-02-19T21:41:27.297Z,6.50
2023-02-19T21:44:24.797Z,6.50
2023-02-19T21:47:21.590Z,6.40
2023-02-19T21:50:20.030Z,6.50
2023-02-19T21:53:16.842Z,6.40
2023-02-19T21:56:24.956Z,6.40
2023-02-19T21:59:22.655Z,6.40
2023-02-19T22:02:22.001Z,6.40
2023-02-19T22:05:18.892Z,6.40
2023-02-19T22:08:17.416Z,6.30
2023-02-19T22:11:14.270Z,6.30
2023-02-19T22:14:11.106Z,6.40
2023-02-19T22:17:07.931Z,6.30
2023-02-19T22:20:06.017Z,6.40
2023-02-19T22:23:02.809Z,6.30
2023-02-19T22:25:59.852Z,6.30
2023-02-19T22:28:58.304Z,6.40
2023-02-19T22:31:55.304Z,6.40
2023-02-19T22:34:52.190Z,6.40
2023-02-19T22:37:48.983Z,6.40
2023-02-19T22:40:45.825Z,6.40
2023-02-19T22:43:42.906Z,6.40
2023-02-19T22:46:45.200Z,6.40
2023-02-19T22:49:43.787Z,6.40
2023-02-19T22:52:40.718Z,6.40
2023-02-19T22:55:37.583Z,6.30
2023-02-19T22:58:34.378Z,6.30
2023-02-19T23:01:31.179Z,6.40
2023-02-19T23:04:28.054Z,6.40
2023-02-19T23:07:25.077Z,6.30
2023-02-19T23:10:21.907Z,6.40
2023-02-19T23:13:18.766Z,6.30
2023-02-19T23:16:16.197Z,6.40
2023-02-19T23:19:15.817Z,6.40
2023-02-19T23:22:12.765Z,6.30
2023-02-19T23:25:09.641Z,6.40
2023-02-19T23:28:06.449Z,6.30
2023-02-19T23:31:03.451Z,6.30
2023-02-19T23:34:00.351Z,6.20
2023-02-19T23:36:59.448Z,6.30
2023-02-19T23:39:56.378Z,6.20
2023-02-19T23:42:54.548Z,6.20
2023-02-19T23:45:51.391Z,6.20
2023-02-19T23:48:48.241Z,6.20
2023-02-19T23:51:45.205Z,6.20
2023-02-19T23:54:42.082Z,6.20
2023-02-19T23:57:38.927Z,6.20
